Time,TemperatureF,DewpointF,PressureIn,WindDirection,WindDirectionDegrees,WindSpeedMPH,WindSpeedGustMPH,Humidity,HourlyPrecipIn,Conditions,Clouds,dailyrainin,SolarRadiationWatts/m^2,SoftwareType,DateUTC
2013-03-27 00:00:00,37.9,31.5,30.38,SSW,201,0.0,0.0,77,0.00,,,0.00,0.0,meteohub,2013-03-27 05:00:00,
2013-03-27 00:05:00,37.8,31.5,30.38,SSW,201,0.0,0.0,78,0.00,,,0.00,0.0,meteohub,2013-03-27 05:05:00,
2013-03-27 00:11:00,37.4,31.1,30.38,SSW,201,0.0,0.0,78,0.00,,,0.00,0.0,meteohub,2013-03-27 05:11:00,
2013-03-27 00:15:00,37.2,31.3,30.38,SSW,200,0.0,0.0,79,0.00,,,0.00,0.0,meteohub,2013-03-27 05:15:00,
2013-03-27 00:21:00,37.0,31.1,30.38,SSW,201,0.0,0.0,79,0.00,,,0.00,0.0,meteohub,2013-03-27 05:21:00,
2013-03-27 00:26:00,36.9,30.9,30.38,SSW,201,0.0,0.0,79,0.00,,,0.00,0.0,meteohub,2013-03-27 05:26:00,
2013-03-27 00:31:00,36.7,31.5,30.38,SSW,200,0.0,0.0,81,0.00,,,0.00,0.0,meteohub,2013-03-27 05:31:00,
2013-03-27 00:36:00,36.7,31.6,30.38,SSW,201,0.0,0.0,82,0.00,,,0.00,0.0,meteohub,2013-03-27 05:36:00,
2013-03-27 00:41:00,36.5,31.8,30.38,SSW,200,0.0,0.0,83,0.00,,,0.00,0.0,meteohub,2013-03-27 05:41:00,
2013-03-27 00:46:00,36.3,32.0,30.38,SSW,201,0.0,0.0,84,0.00,,,0.00,0.0,meteohub,2013-03-27 05:46:00,
2013-03-27 00:51:00,36.1,32.0,30.38,SSW,200,0.0,0.0,85,0.00,,,0.00,0.0,meteohub,2013-03-27 05:51:00,
2013-03-27 00:56:00,36.1,32.4,30.38,SSW,200,0.0,0.0,86,0.00,,,0.00,0.0,meteohub,2013-03-27 05:56:00,
2013-03-27 01:01:00,36.0,32.5,30.38,SSW,201,0.0,0.0,87,0.00,,,0.00,0.0,meteohub,2013-03-27 06:01:00,
2013-03-27 01:06:00,36.0,32.2,30.37,SSW,200,0.0,0.0,86,0.00,,,0.00,0.0,meteohub,2013-03-27 06:06:00,
2013-03-27 01:11:00,36.0,32.2,30.38,SSW,201,0.0,0.0,86,0.00,,,0.00,0.0,meteohub,2013-03-27 06:11:00,
2013-03-27 01:16:00,35.8,32.0,30.38,SSW,201,0.0,0.0,86,0.00,,,0.00,0.0,meteohub,2013-03-27 06:16:00,
2013-03-27 01:22:00,35.4,32.0,30.38,SSW,200,0.0,0.0,87,0.00,,,0.00,0.0,meteohub,2013-03-27 06:22:00,
2013-03-27 01:27:00,35.8,32.4,30.38,SSW,200,0.0,0.0,87,0.00,,,0.00,0.0,meteohub,2013-03-27 06:27:00,
2013-03-27 01:32:00,36.0,32.5,30.38,SSW,201,0.0,0.0,87,0.00,,,0.00,0.0,meteohub,2013-03-27 06:32:00,
2013-03-27 01:37:00,36.0,32.2,30.38,SSW,201,0.0,0.0,86,0.00,,,0.00,0.0,meteohub,2013-03-27 06:37:00,
2013-03-27 01:42:00,35.6,31.8,30.37,SSW,201,0.0,0.0,86,0.00,,,0.00,0.0,meteohub,2013-03-27 06:42:00,
2013-03-27 01:47:00,35.8,32.0,30.38,SSW,200,0.0,0.0,86,0.00,,,0.00,0.0,meteohub,2013-03-27 06:47:00,
2013-03-27 01:52:00,35.6,31.8,30.38,SSW,201,0.0,0.0,86,0.00,,,0.00,0.0,meteohub,2013-03-27 06:52:00,
2013-03-27 01:57:00,35.4,31.6,30.37,SSW,201,0.0,0.0,86,0.00,,,0.00,0.0,meteohub,2013-03-27 06:57:00,
2013-03-27 02:02:00,35.4,32.0,30.38,SSW,200,0.0,0.0,87,0.00,,,0.00,0.0,meteohub,2013-03-27 07:02:00,
2013-03-27 02:07:00,35.4,32.0,30.37,SSW,201,0.0,0.0,87,0.00,,,0.00,0.0,meteohub,2013-03-27 07:07:00,
2013-03-27 02:12:00,35.2,31.8,30.38,SSW,201,0.0,0.0,87,0.00,,,0.00,0.0,meteohub,2013-03-27 07:12:00,
2013-03-27 02:17:00,35.1,31.3,30.38,SSW,201,0.0,0.0,86,0.00,,,0.00,0.0,meteohub,2013-03-27 07:17:00,
2013-03-27 02:22:00,35.1,31.6,30.37,SSW,200,0.0,0.0,87,0.00,,,0.00,0.0,meteohub,2013-03-27 07:22:00,
2013-03-27 02:27:00,35.1,31.6,30.37,SSW,201,0.0,0.0,87,0.00,,,0.00,0.0,meteohub,2013-03-27 07:27:00,
2013-03-27 02:32:00,35.1,31.6,30.37,SSW,201,0.0,0.0,87,0.00,,,0.00,0.0,meteohub,2013-03-27 07:32:00,
2013-03-27 02:37:00,35.1,31.6,30.37,SSW,201,0.0,0.0,87,0.00,,,0.00,0.0,meteohub,2013-03-27 07:37:00,
2013-03-27 02:42:00,34.7,31.3,30.37,SSW,200,0.0,0.0,87,0.00,,,0.00,0.0,meteohub,2013-03-27 07:42:00,
2013-03-27 02:47:00,34.5,31.1,30.37,SSW,201,0.0,0.0,87,0.00,,,0.00,0.0,meteohub,2013-03-27 07:47:00,
2013-03-27 02:52:00,34.9,31.5,30.37,SSW,201,0.0,0.0,87,0.00,,,0.00,0.0,meteohub,2013-03-27 07:52:00,
2013-03-27 02:57:00,34.5,31.3,30.37,SSW,200,0.0,0.0,88,0.00,,,0.00,0.0,meteohub,2013-03-27 07:57:00,
2013-03-27 03:02:00,34.5,31.3,30.37,SSW,201,0.0,0.0,88,0.00,,,0.00,0.0,meteohub,2013-03-27 08:02:00,
2013-03-27 03:07:00,34.5,31.3,30.37,SSW,201,0.0,0.0,88,0.00,,,0.00,0.0,meteohub,2013-03-27 08:07:00,
2013-03-27 03:12:00,34.5,31.6,30.36,SSW,200,0.0,0.0,89,0.00,,,0.00,0.0,meteohub,2013-03-27 08:12:00,
2013-03-27 03:17:00,34.5,31.6,30.36,SSW,201,0.0,0.0,89,0.00,,,0.00,0.0,meteohub,2013-03-27 08:17:00,
2013-03-27 03:22:00,34.7,31.8,30.37,SSW,201,0.0,0.0,89,0.00,,,0.00,0.0,meteohub,2013-03-27 08:22:00,
2013-03-27 03:27:00,34.7,32.0,30.36,SSW,201,0.0,0.0,90,0.00,,,0.00,0.0,meteohub,2013-03-27 08:27:00,
2013-03-27 03:32:00,34.9,32.2,30.36,SSW,200,0.0,0.0,90,0.00,,,0.00,0.0,meteohub,2013-03-27 08:32:00,
2013-03-27 03:37:00,34.9,32.0,30.36,SSW,201,0.0,0.0,89,0.00,,,0.00,0.0,meteohub,2013-03-27 08:37:00,
2013-03-27 03:42:00,34.3,31.5,30.36,SSW,201,0.0,0.0,89,0.00,,,0.00,0.0,meteohub,2013-03-27 08:42:00,
2013-03-27 03:47:00,34.3,31.5,30.37,SSW,200,0.0,0.0,89,0.00,,,0.00,0.0,meteohub,2013-03-27 08:47:00,
2013-03-27 03:52:00,34.2,31.3,30.37,SSW,201,0.0,0.0,89,0.00,,,0.00,0.0,meteohub,2013-03-27 08:52:00,
2013-03-27 03:57:00,34.2,31.3,30.37,SSW,201,0.0,0.0,89,0.00,,,0.00,0.0,meteohub,2013-03-27 08:57:00,
2013-03-27 04:02:00,34.3,31.5,30.37,SSW,201,0.0,0.0,89,0.00,,,0.00,0.0,meteohub,2013-03-27 09:02:00,
2013-03-27 04:07:00,34.3,31.5,30.36,SSW,200,0.0,0.0,89,0.00,,,0.00,0.0,meteohub,2013-03-27 09:07:00,
2013-03-27 04:12:00,34.3,31.5,30.37,SSW,200,0.0,0.0,89,0.00,,,0.00,0.0,meteohub,2013-03-27 09:12:00,
2013-03-27 04:17:00,34.2,31.3,30.36,SSW,201,0.0,0.0,89,0.00,,,0.00,0.0,meteohub,2013-03-27 09:17:00,
2013-03-27 04:22:00,34.3,31.5,30.36,SSW,201,0.0,0.0,89,0.00,,,0.00,0.0,meteohub,2013-03-27 09:22:00,
2013-03-27 04:27:00,34.3,31.5,30.36,SSW,200,0.0,0.0,89,0.00,,,0.00,0.0,meteohub,2013-03-27 09:27:00,
2013-03-27 04:32:00,34.3,31.1,30.37,SSW,201,0.0,0.0,88,0.00,,,0.00,0.0,meteohub,2013-03-27 09:32:00,
2013-03-27 04:37:00,34.0,30.7,30.36,SSW,201,0.0,0.0,88,0.00,,,0.00,0.0,meteohub,2013-03-27 09:37:00,
2013-03-27 04:43:00,33.6,30.4,30.36,SSW,201,0.0,0.0,88,0.00,,,0.00,0.0,meteohub,2013-03-27 09:43:00,
2013-03-27 04:48:00,34.0,31.1,30.36,SSW,200,0.0,0.0,89,0.00,,,0.00,0.0,meteohub,2013-03-27 09:48:00,
2013-03-27 04:53:00,34.2,31.3,30.36,SSW,200,0.0,0.0,89,0.00,,,0.00,0.0,meteohub,2013-03-27 09:53:00,
2013-03-27 04:58:00,34.2,31.3,30.36,SSW,200,0.0,0.0,89,0.00,,,0.00,0.0,meteohub,2013-03-27 09:58:00,
2013-03-27 05:03:00,34.3,31.6,30.36,SSW,201,0.0,0.0,90,0.00,,,0.00,0.0,meteohub,2013-03-27 10:03:00,
2013-03-27 05:08:00,34.3,31.5,30.36,SSW,201,0.0,0.0,89,0.00,,,0.00,0.0,meteohub,2013-03-27 10:08:00,
2013-03-27 05:13:00,34.5,31.6,30.36,SSW,200,0.0,0.0,89,0.00,,,0.00,0.0,meteohub,2013-03-27 10:13:00,
2013-03-27 05:18:00,34.9,31.6,30.36,SSW,201,0.0,0.0,88,0.00,,,0.00,0.0,meteohub,2013-03-27 10:18:00,
2013-03-27 05:23:00,35.2,31.8,30.36,SSW,200,0.0,0.0,87,0.00,,,0.00,0.0,meteohub,2013-03-27 10:23:00,
2013-03-27 05:28:00,35.2,31.5,30.36,SSW,201,0.0,0.0,86,0.00,,,0.00,0.0,meteohub,2013-03-27 10:28:00,
2013-03-27 05:33:00,35.2,31.5,30.37,SSW,200,0.0,2.0,86,0.00,,,0.00,0.0,meteohub,2013-03-27 10:33:00,
2013-03-27 05:38:00,35.2,31.1,30.37,SSW,201,0.0,2.0,85,0.00,,,0.00,0.0,meteohub,2013-03-27 10:38:00,
2013-03-27 05:43:00,35.4,31.3,30.37,SSW,201,0.0,1.0,85,0.00,,,0.00,0.0,meteohub,2013-03-27 10:43:00,
2013-03-27 05:48:00,35.2,31.1,30.37,SSW,200,0.0,1.0,85,0.00,,,0.00,0.0,meteohub,2013-03-27 10:48:00,
2013-03-27 05:53:00,35.2,31.1,30.38,SSW,201,0.0,1.0,85,0.00,,,0.00,0.0,meteohub,2013-03-27 10:53:00,
2013-03-27 05:58:00,34.9,30.9,30.38,SSW,200,0.0,1.0,85,0.00,,,0.00,0.0,meteohub,2013-03-27 10:58:00,
2013-03-27 06:03:00,34.3,30.6,30.38,SSW,201,0.0,1.0,86,0.00,,,0.00,0.0,meteohub,2013-03-27 11:03:00,
2013-03-27 06:08:00,34.3,30.9,30.38,SSW,200,0.0,1.0,87,0.00,,,0.00,0.0,meteohub,2013-03-27 11:08:00,
2013-03-27 06:13:00,34.0,30.7,30.38,SSW,201,0.0,0.0,88,0.00,,,0.00,0.0,meteohub,2013-03-27 11:13:00,
2013-03-27 06:18:00,33.6,30.7,30.39,SSW,200,0.0,0.0,89,0.00,,,0.00,0.0,meteohub,2013-03-27 11:18:00,
2013-03-27 06:23:00,33.3,30.4,30.39,SSW,200,0.0,0.0,89,0.00,,,0.00,0.0,meteohub,2013-03-27 11:23:00,
2013-03-27 06:28:00,32.7,29.8,30.39,SSW,200,0.0,0.0,89,0.00,,,0.00,0.0,meteohub,2013-03-27 11:28:00,
2013-03-27 06:33:00,32.7,30.2,30.39,SSW,201,0.0,0.0,90,0.00,,,0.00,0.0,meteohub,2013-03-27 11:33:00,
2013-03-27 06:38:00,32.7,30.2,30.40,SSW,201,0.0,0.0,90,0.00,,,0.00,0.0,meteohub,2013-03-27 11:38:00,
2013-03-27 06:43:00,32.9,30.4,30.39,SSW,201,0.0,0.0,90,0.00,,,0.00,0.0,meteohub,2013-03-27 11:43:00,
2013-03-27 06:48:00,33.1,30.4,30.40,SSW,200,0.0,0.0,90,0.00,,,0.00,0.0,meteohub,2013-03-27 11:48:00,
2013-03-27 06:53:00,32.9,30.0,30.40,SSW,201,0.0,0.0,89,0.00,,,0.00,0.0,meteohub,2013-03-27 11:53:00,
2013-03-27 06:58:00,32.7,29.8,30.40,SSW,200,0.0,0.0,89,0.00,,,0.00,0.0,meteohub,2013-03-27 11:58:00,
2013-03-27 07:03:00,32.7,29.8,30.40,SSW,201,0.0,0.0,89,0.00,,,0.00,0.0,meteohub,2013-03-27 12:03:00,
2013-03-27 07:08:00,32.7,29.8,30.40,SSW,201,0.0,0.0,89,0.00,,,0.00,5.0,meteohub,2013-03-27 12:08:00,
2013-03-27 07:13:00,32.9,30.0,30.40,SSW,201,0.0,0.0,89,0.00,,,0.00,11.0,meteohub,2013-03-27 12:13:00,
2013-03-27 07:18:00,33.1,30.2,30.40,SSW,201,0.0,0.0,89,0.00,,,0.00,16.0,meteohub,2013-03-27 12:18:00,
2013-03-27 07:23:00,33.3,30.4,30.40,SSW,201,0.0,0.0,89,0.00,,,0.00,18.0,meteohub,2013-03-27 12:23:00,
2013-03-27 07:28:00,33.6,30.7,30.40,SSW,201,0.0,0.0,89,0.00,,,0.00,25.0,meteohub,2013-03-27 12:28:00,
2013-03-27 07:33:00,34.2,31.3,30.41,SSW,201,0.0,0.0,89,0.00,,,0.00,30.0,meteohub,2013-03-27 12:33:00,
2013-03-27 07:38:00,34.5,31.6,30.41,SSW,201,0.0,0.0,89,0.00,,,0.00,33.0,meteohub,2013-03-27 12:38:00,
2013-03-27 07:43:00,35.2,32.0,30.41,SSW,200,0.0,0.0,88,0.00,,,0.00,33.0,meteohub,2013-03-27 12:43:00,
2013-03-27 07:48:00,36.0,32.2,30.41,SSW,201,0.0,2.0,86,0.00,,,0.00,37.0,meteohub,2013-03-27 12:48:00,
2013-03-27 07:53:00,36.3,32.2,30.42,SSW,199,0.0,2.0,85,0.00,,,0.00,44.0,meteohub,2013-03-27 12:53:00,
2013-03-27 07:58:00,36.9,32.2,30.42,ENE,61,0.0,2.0,83,0.00,,,0.00,53.0,meteohub,2013-03-27 12:58:00,
2013-03-27 08:03:00,37.4,32.4,30.42,ENE,61,0.0,2.0,82,0.00,,,0.00,46.0,meteohub,2013-03-27 13:03:00,
2013-03-27 08:08:00,37.9,32.7,30.42,ENE,61,0.0,2.0,81,0.00,,,0.00,49.0,meteohub,2013-03-27 13:08:00,
2013-03-27 08:13:00,38.3,32.4,30.42,ENE,60,0.0,2.0,79,0.00,,,0.00,65.0,meteohub,2013-03-27 13:13:00,
2013-03-27 08:18:00,38.8,32.5,30.42,ENE,76,0.0,1.0,78,0.00,,,0.00,120.0,meteohub,2013-03-27 13:18:00,
2013-03-27 08:23:00,39.2,32.5,30.42,ENE,60,0.0,1.0,77,0.00,,,0.00,158.0,meteohub,2013-03-27 13:23:00,
2013-03-27 08:29:00,39.7,32.5,30.43,East,94,3.0,6.0,75,0.00,,,0.00,246.0,meteohub,2013-03-27 13:29:00,
2013-03-27 08:34:00,40.5,32.9,30.43,East,97,0.0,6.0,74,0.00,,,0.00,264.0,meteohub,2013-03-27 13:34:00,
2013-03-27 08:39:00,41.0,32.7,30.43,NNE,32,2.0,6.0,72,0.00,,,0.00,271.0,meteohub,2013-03-27 13:39:00,
2013-03-27 08:44:00,41.4,32.7,30.44,ESE,108,2.0,6.0,71,0.00,,,0.00,272.0,meteohub,2013-03-27 13:44:00,
2013-03-27 08:49:00,41.9,32.9,30.44,NE,55,0.0,6.0,70,0.00,,,0.00,274.0,meteohub,2013-03-27 13:49:00,
2013-03-27 08:54:00,42.4,33.1,30.45,NE,44,1.0,7.0,69,0.00,,,0.00,287.0,meteohub,2013-03-27 13:54:00,
2013-03-27 08:59:00,43.0,32.7,30.45,ENE,77,5.0,7.0,67,0.00,,,0.00,301.0,meteohub,2013-03-27 13:59:00,
2013-03-27 09:04:00,43.3,33.1,30.45,NE,38,3.0,7.0,67,0.00,,,0.00,327.0,meteohub,2013-03-27 14:04:00,
2013-03-27 09:09:00,44.1,33.1,30.45,NE,49,0.0,7.0,65,0.00,,,0.00,359.0,meteohub,2013-03-27 14:09:00,
2013-03-27 09:14:00,44.8,32.5,30.45,ENE,76,3.0,10.0,62,0.00,,,0.00,385.0,meteohub,2013-03-27 14:14:00,
2013-03-27 09:19:00,45.1,32.9,30.45,East,96,2.0,10.0,62,0.00,,,0.00,408.0,meteohub,2013-03-27 14:19:00,
2013-03-27 09:24:00,45.9,33.3,30.45,NNE,13,0.0,7.0,61,0.00,,,0.00,418.0,meteohub,2013-03-27 14:24:00,
2013-03-27 09:29:00,46.0,32.9,30.45,ENE,76,0.0,7.0,60,0.00,,,0.00,424.0,meteohub,2013-03-27 14:29:00,
2013-03-27 09:34:00,46.8,33.3,30.45,ENE,69,0.0,8.0,59,0.00,,,0.00,434.0,meteohub,2013-03-27 14:34:00,
2013-03-27 09:39:00,47.7,33.6,30.45,East,79,2.0,8.0,58,0.00,,,0.00,443.0,meteohub,2013-03-27 14:39:00,
2013-03-27 09:44:00,47.8,33.3,30.45,NE,34,2.0,8.0,57,0.00,,,0.00,452.0,meteohub,2013-03-27 14:44:00,
2013-03-27 09:49:00,48.7,34.2,30.45,NE,41,0.0,6.0,57,0.00,,,0.00,475.0,meteohub,2013-03-27 14:49:00,
2013-03-27 09:54:00,49.1,33.6,30.45,NNE,26,0.0,6.0,55,0.00,,,0.00,503.0,meteohub,2013-03-27 14:54:00,
2013-03-27 09:59:00,49.3,34.2,30.45,NNE,23,0.0,6.0,56,0.00,,,0.00,526.0,meteohub,2013-03-27 14:59:00,
2013-03-27 10:04:00,49.6,34.2,30.45,NE,41,0.0,5.0,55,0.00,,,0.00,543.0,meteohub,2013-03-27 15:04:00,
2013-03-27 10:09:00,50.4,33.8,30.45,NE,35,0.0,5.0,53,0.00,,,0.00,561.0,meteohub,2013-03-27 15:09:00,
2013-03-27 10:14:00,50.4,33.4,30.45,North,6,1.0,5.0,52,0.00,,,0.00,571.0,meteohub,2013-03-27 15:14:00,
2013-03-27 10:19:00,50.7,33.8,30.45,ENE,65,0.0,6.0,52,0.00,,,0.00,589.0,meteohub,2013-03-27 15:19:00,
2013-03-27 10:24:00,51.4,32.9,30.45,ENE,71,0.0,6.0,49,0.00,,,0.00,619.0,meteohub,2013-03-27 15:24:00,
2013-03-27 10:29:00,51.6,33.6,30.45,ESE,116,4.0,8.0,50,0.00,,,0.00,633.0,meteohub,2013-03-27 15:29:00,
2013-03-27 10:34:00,52.0,33.4,30.45,NE,38,0.0,8.0,49,0.00,,,0.00,643.0,meteohub,2013-03-27 15:34:00,
2013-03-27 10:39:00,52.9,32.7,30.45,NNE,29,4.0,8.0,46,0.00,,,0.00,652.0,meteohub,2013-03-27 15:39:00,
2013-03-27 10:44:00,53.1,32.4,30.45,NNE,21,4.0,9.0,45,0.00,,,0.00,661.0,meteohub,2013-03-27 15:44:00,
2013-03-27 10:50:00,53.2,33.1,30.45,NE,52,0.0,9.0,46,0.00,,,0.00,670.0,meteohub,2013-03-27 15:50:00,
2013-03-27 10:55:00,53.2,33.1,30.45,East,101,0.0,7.0,46,0.00,,,0.00,679.0,meteohub,2013-03-27 15:55:00,
2013-03-27 11:00:00,53.6,32.7,30.45,NE,38,0.0,7.0,45,0.00,,,0.00,696.0,meteohub,2013-03-27 16:00:00,
2013-03-27 11:05:00,54.3,31.6,30.45,ESE,107,2.0,7.0,42,0.00,,,0.00,719.0,meteohub,2013-03-27 16:05:00,
2013-03-27 11:10:00,54.3,30.6,30.45,East,83,0.0,7.0,40,0.00,,,0.00,745.0,meteohub,2013-03-27 16:10:00,
2013-03-27 11:15:00,55.0,32.4,30.45,SE,134,0.0,7.0,42,0.00,,,0.00,761.0,meteohub,2013-03-27 16:15:00,
2013-03-27 11:20:00,54.9,30.9,30.44,NE,39,2.0,-999.0,40,0.00,,,0.00,775.0,meteohub,2013-03-27 16:20:00,
2013-03-27 11:25:00,55.0,31.8,30.44,North,359,0.0,9.0,41,0.00,,,0.00,795.0,meteohub,2013-03-27 16:25:00,
2013-03-27 11:32:00,55.4,30.9,30.44,NNE,32,3.0,9.0,39,0.00,,,0.00,831.0,meteohub,2013-03-27 16:32:00,
2013-03-27 11:37:00,55.0,30.6,30.43,East,81,2.0,9.0,39,0.00,,,0.00,861.0,meteohub,2013-03-27 16:37:00,
2013-03-27 11:42:00,55.6,30.4,30.43,ENE,75,0.0,9.0,38,0.00,,,0.00,879.0,meteohub,2013-03-27 16:42:00,
2013-03-27 11:47:00,55.8,33.1,30.43,ENE,59,0.0,9.0,42,0.00,,,0.00,912.0,meteohub,2013-03-27 16:47:00,
2013-03-27 11:52:00,56.1,31.5,30.43,ENE,63,0.0,9.0,39,0.00,,,0.00,926.0,meteohub,2013-03-27 16:52:00,
2013-03-27 11:57:00,56.5,31.1,30.43,NE,49,1.0,9.0,38,0.00,,,0.00,928.0,meteohub,2013-03-27 16:57:00,
2013-03-27 12:02:00,56.5,30.6,30.43,East,95,0.0,9.0,37,0.00,,,0.00,937.0,meteohub,2013-03-27 17:02:00,
2013-03-27 12:07:00,57.4,32.0,30.42,NNE,20,3.0,7.0,38,0.00,,,0.00,933.0,meteohub,2013-03-27 17:07:00,
2013-03-27 12:12:00,57.4,32.0,30.42,NE,48,5.0,7.0,38,0.00,,,0.00,935.0,meteohub,2013-03-27 17:12:00,
2013-03-27 12:17:00,57.4,31.3,30.42,NE,52,2.0,7.0,37,0.00,,,0.00,937.0,meteohub,2013-03-27 17:17:00,
2013-03-27 12:23:00,57.4,31.3,30.42,ESE,106,0.0,10.0,37,0.00,,,0.00,939.0,meteohub,2013-03-27 17:23:00,
2013-03-27 12:28:00,58.3,32.2,30.41,NNE,17,4.0,10.0,37,0.00,,,0.00,939.0,meteohub,2013-03-27 17:28:00,
2013-03-27 12:31:00,57.9,31.1,30.41,NE,34,3.0,10.0,36,0.00,,,0.00,940.0,meteohub,2013-03-27 17:31:00,
2013-03-27 12:37:00,59.0,30.7,30.41,SE,136,1.0,9.0,34,0.00,,,0.00,942.0,meteohub,2013-03-27 17:37:00,
2013-03-27 12:42:00,58.6,31.8,30.40,ENE,68,0.0,9.0,36,0.00,,,0.00,944.0,meteohub,2013-03-27 17:42:00,
2013-03-27 12:47:00,57.6,30.0,30.40,NE,52,0.0,7.0,35,0.00,,,0.00,940.0,meteohub,2013-03-27 17:47:00,
2013-03-27 12:52:00,58.5,31.6,30.40,NE,37,0.0,7.0,36,0.00,,,0.00,940.0,meteohub,2013-03-27 17:52:00,
2013-03-27 12:57:00,57.6,30.0,30.40,NE,48,0.0,7.0,35,0.00,,,0.00,939.0,meteohub,2013-03-27 17:57:00,
2013-03-27 13:02:00,59.2,32.9,30.39,ENE,65,2.0,7.0,37,0.00,,,0.00,935.0,meteohub,2013-03-27 18:02:00,
2013-03-27 13:07:00,60.1,33.1,30.39,ENE,78,0.0,6.0,36,0.00,,,0.00,939.0,meteohub,2013-03-27 18:07:00,
2013-03-27 13:12:00,59.0,31.5,30.38,ESE,106,0.0,6.0,35,0.00,,,0.00,944.0,meteohub,2013-03-27 18:12:00,
2013-03-27 13:17:00,60.1,32.4,30.38,ENE,74,0.0,6.0,35,0.00,,,0.00,942.0,meteohub,2013-03-27 18:17:00,
2013-03-27 13:22:00,59.5,31.8,30.38,NE,56,4.0,6.0,35,0.00,,,0.00,932.0,meteohub,2013-03-27 18:22:00,
2013-03-27 13:27:00,59.5,32.5,30.38,SE,129,0.0,11.0,36,0.00,,,0.00,937.0,meteohub,2013-03-27 18:27:00,
2013-03-27 13:32:00,59.2,32.2,30.37,NW,323,0.0,11.0,36,0.00,,,0.00,932.0,meteohub,2013-03-27 18:32:00,
2013-03-27 13:37:00,61.0,32.4,30.37,ENE,69,2.0,11.0,34,0.00,,,0.00,926.0,meteohub,2013-03-27 18:37:00,
2013-03-27 13:43:00,60.3,30.2,30.37,NE,49,0.0,11.0,32,0.00,,,0.00,923.0,meteohub,2013-03-27 18:43:00,
2013-03-27 13:48:00,60.3,31.8,30.36,South,173,0.0,7.0,34,0.00,,,0.00,921.0,meteohub,2013-03-27 18:48:00,
2013-03-27 13:53:00,61.2,32.5,30.36,NE,49,1.0,7.0,34,0.00,,,0.00,923.0,meteohub,2013-03-27 18:53:00,
2013-03-27 13:58:00,61.3,32.7,30.36,NNE,26,1.0,9.0,34,0.00,,,0.00,909.0,meteohub,2013-03-27 18:58:00,
2013-03-27 14:03:00,61.5,32.9,30.35,South,191,1.0,9.0,34,0.00,,,0.00,911.0,meteohub,2013-03-27 19:03:00,
2013-03-27 14:08:00,60.3,31.8,30.35,South,191,0.0,9.0,34,0.00,,,0.00,900.0,meteohub,2013-03-27 19:08:00,
2013-03-27 14:13:00,61.2,33.3,30.34,North,11,1.0,9.0,35,0.00,,,0.00,891.0,meteohub,2013-03-27 19:13:00,
2013-03-27 14:18:00,62.6,33.8,30.34,NNE,18,4.0,5.0,34,0.00,,,0.00,886.0,meteohub,2013-03-27 19:18:00,
2013-03-27 14:23:00,62.8,35.4,30.34,ESE,110,3.0,5.0,36,0.00,,,0.00,879.0,meteohub,2013-03-27 19:23:00,
2013-03-27 14:28:00,62.2,33.4,30.33,NNE,29,0.0,9.0,34,0.00,,,0.00,874.0,meteohub,2013-03-27 19:28:00,
2013-03-27 14:33:00,62.1,33.4,30.33,NNE,16,0.0,9.0,34,0.00,,,0.00,856.0,meteohub,2013-03-27 19:33:00,
2013-03-27 14:38:00,63.3,34.5,30.33,East,91,0.0,8.0,34,0.00,,,0.00,853.0,meteohub,2013-03-27 19:38:00,
2013-03-27 14:43:00,62.4,32.9,30.33,NE,49,0.0,8.0,33,0.00,,,0.00,838.0,meteohub,2013-03-27 19:43:00,
2013-03-27 14:48:00,62.2,32.7,30.33,NNW,339,0.0,5.0,33,0.00,,,0.00,826.0,meteohub,2013-03-27 19:48:00,
2013-03-27 14:53:00,63.1,35.8,30.32,ENE,69,0.0,5.0,36,0.00,,,0.00,830.0,meteohub,2013-03-27 19:53:00,
2013-03-27 14:58:00,62.8,33.3,30.32,East,92,0.0,8.0,33,0.00,,,0.00,809.0,meteohub,2013-03-27 19:58:00,
2013-03-27 15:04:00,63.1,33.6,30.32,NNE,29,2.0,8.0,33,0.00,,,0.00,793.0,meteohub,2013-03-27 20:04:00,
2013-03-27 15:09:00,64.0,35.1,30.32,NNE,19,1.0,4.0,34,0.00,,,0.00,772.0,meteohub,2013-03-27 20:09:00,
2013-03-27 15:14:00,63.3,33.8,30.32,NNE,25,2.0,4.0,33,0.00,,,0.00,758.0,meteohub,2013-03-27 20:14:00,
2013-03-27 15:19:00,63.9,34.9,30.31,SE,129,0.0,6.0,34,0.00,,,0.00,726.0,meteohub,2013-03-27 20:19:00,
2013-03-27 15:24:00,63.5,32.4,30.31,NNE,33,1.0,6.0,31,0.00,,,0.00,464.0,meteohub,2013-03-27 20:24:00,
2013-03-27 15:29:00,63.3,32.9,30.30,North,11,2.0,5.0,32,0.00,,,0.00,631.0,meteohub,2013-03-27 20:29:00,
2013-03-27 15:34:00,63.1,34.3,30.30,North,11,3.0,5.0,34,0.00,,,0.00,703.0,meteohub,2013-03-27 20:34:00,
2013-03-27 15:39:00,63.1,32.7,30.30,NNW,335,4.0,5.0,32,0.00,,,0.00,536.0,meteohub,2013-03-27 20:39:00,
2013-03-27 15:44:00,63.9,34.2,30.30,East,81,2.0,5.0,33,0.00,,,0.00,313.0,meteohub,2013-03-27 20:44:00,
2013-03-27 15:49:00,63.1,32.7,30.30,NNE,17,4.0,7.0,32,0.00,,,0.00,352.0,meteohub,2013-03-27 20:49:00,
2013-03-27 15:54:00,63.5,33.1,30.29,NNE,16,0.0,7.0,32,0.00,,,0.00,478.0,meteohub,2013-03-27 20:54:00,
2013-03-27 15:59:00,63.9,33.4,30.29,ENE,76,2.0,7.0,32,0.00,,,0.00,415.0,meteohub,2013-03-27 20:59:00,
2013-03-27 16:04:00,63.9,33.4,30.29,ESE,109,0.0,7.0,32,0.00,,,0.00,503.0,meteohub,2013-03-27 21:04:00,
2013-03-27 16:09:00,63.7,34.0,30.29,NNE,18,0.0,4.0,33,0.00,,,0.00,162.0,meteohub,2013-03-27 21:09:00,
2013-03-27 16:14:00,64.0,34.3,30.29,NNE,12,3.0,4.0,33,0.00,,,0.00,246.0,meteohub,2013-03-27 21:14:00,
2013-03-27 16:19:00,64.4,34.0,30.28,NNE,13,3.0,5.0,32,0.00,,,0.00,348.0,meteohub,2013-03-27 21:19:00,
2013-03-27 16:24:00,64.0,32.7,30.28,North,7,3.0,5.0,31,0.00,,,0.00,504.0,meteohub,2013-03-27 21:24:00,
2013-03-27 16:29:00,64.0,33.6,30.28,NNE,13,1.0,9.0,32,0.00,,,0.00,534.0,meteohub,2013-03-27 21:29:00,
2013-03-27 16:34:00,64.6,34.0,30.28,NE,55,1.0,9.0,32,0.00,,,0.00,531.0,meteohub,2013-03-27 21:34:00,
2013-03-27 16:39:00,64.6,34.0,30.27,East,86,0.0,7.0,32,0.00,,,0.00,455.0,meteohub,2013-03-27 21:39:00,
2013-03-27 16:44:00,64.8,34.2,30.27,ENE,69,0.0,7.0,32,0.00,,,0.00,323.0,meteohub,2013-03-27 21:44:00,
2013-03-27 16:49:00,64.8,34.2,30.27,NNE,21,3.0,5.0,32,0.00,,,0.00,206.0,meteohub,2013-03-27 21:49:00,
2013-03-27 16:54:00,64.9,34.3,30.27,ENE,68,3.0,5.0,32,0.00,,,0.00,227.0,meteohub,2013-03-27 21:54:00,
2013-03-27 16:59:00,64.6,33.3,30.27,NE,46,0.0,5.0,31,0.00,,,0.00,350.0,meteohub,2013-03-27 21:59:00,
2013-03-27 17:04:00,64.6,34.0,30.27,NE,52,0.0,5.0,32,0.00,,,0.00,146.0,meteohub,2013-03-27 22:04:00,
2013-03-27 17:09:00,64.8,33.4,30.27,NNE,19,3.0,5.0,31,0.00,,,0.00,95.0,meteohub,2013-03-27 22:09:00,
2013-03-27 17:14:00,64.6,34.9,30.27,ENE,68,0.0,5.0,33,0.00,,,0.00,174.0,meteohub,2013-03-27 22:14:00,
2013-03-27 17:19:00,64.6,34.0,30.27,NNE,16,4.0,5.0,32,0.00,,,0.00,60.0,meteohub,2013-03-27 22:19:00,
2013-03-27 17:24:00,64.2,33.8,30.27,East,90,0.0,5.0,32,0.00,,,0.00,274.0,meteohub,2013-03-27 22:24:00,
2013-03-27 17:29:00,64.4,34.0,30.26,NNE,14,5.0,6.0,32,0.00,,,0.00,297.0,meteohub,2013-03-27 22:29:00,
2013-03-27 17:34:00,64.6,34.9,30.27,NE,50,0.0,6.0,33,0.00,,,0.00,58.0,meteohub,2013-03-27 22:34:00,
2013-03-27 17:39:00,64.4,34.7,30.26,NE,38,2.0,7.0,33,0.00,,,0.00,56.0,meteohub,2013-03-27 22:39:00,
2013-03-27 17:45:00,64.4,34.0,30.26,NNE,21,2.0,7.0,32,0.00,,,0.00,97.0,meteohub,2013-03-27 22:45:00,
2013-03-27 17:50:00,64.4,34.0,30.26,NNE,19,2.0,7.0,32,0.00,,,0.00,186.0,meteohub,2013-03-27 22:50:00,
2013-03-27 17:55:00,64.2,33.8,30.26,NE,50,2.0,9.0,32,0.00,,,0.00,165.0,meteohub,2013-03-27 22:55:00,
2013-03-27 18:00:00,64.4,34.7,30.26,ENE,63,0.0,9.0,33,0.00,,,0.00,49.0,meteohub,2013-03-27 23:00:00,
2013-03-27 18:05:00,64.2,33.8,30.26,ENE,62,4.0,9.0,32,0.00,,,0.00,130.0,meteohub,2013-03-27 23:05:00,
2013-03-27 18:10:00,64.2,33.8,30.26,NE,41,2.0,9.0,32,0.00,,,0.00,84.0,meteohub,2013-03-27 23:10:00,
2013-03-27 18:15:00,64.2,34.5,30.26,NE,47,0.0,9.0,33,0.00,,,0.00,144.0,meteohub,2013-03-27 23:15:00,
2013-03-27 18:20:00,64.0,33.6,30.26,NE,45,0.0,7.0,32,0.00,,,0.00,135.0,meteohub,2013-03-27 23:20:00,
2013-03-27 18:25:00,63.7,34.0,30.26,NNE,26,3.0,7.0,33,0.00,,,0.00,84.0,meteohub,2013-03-27 23:25:00,
2013-03-27 18:30:00,63.3,33.8,30.26,ENE,60,0.0,7.0,33,0.00,,,0.00,46.0,meteohub,2013-03-27 23:30:00,
2013-03-27 18:35:00,63.1,33.6,30.26,NNE,15,6.0,6.0,33,0.00,,,0.00,37.0,meteohub,2013-03-27 23:35:00,
2013-03-27 18:40:00,63.0,33.4,30.25,East,95,2.0,6.0,33,0.00,,,0.00,35.0,meteohub,2013-03-27 23:40:00,
2013-03-27 18:45:00,62.6,33.8,30.25,NNE,20,1.0,6.0,34,0.00,,,0.00,32.0,meteohub,2013-03-27 23:45:00,
2013-03-27 18:50:00,62.2,33.4,30.25,ENE,69,0.0,7.0,34,0.00,,,0.00,28.0,meteohub,2013-03-27 23:50:00,
2013-03-27 18:55:00,62.1,34.2,30.24,NE,38,2.0,7.0,35,0.00,,,0.00,25.0,meteohub,2013-03-27 23:55:00,
2013-03-27 19:00:00,61.7,33.8,30.24,NE,36,3.0,7.0,35,0.00,,,0.00,21.0,meteohub,2013-03-28 00:00:00,
2013-03-27 19:05:00,61.3,34.2,30.24,NE,46,2.0,7.0,36,0.00,,,0.00,18.0,meteohub,2013-03-28 00:05:00,
2013-03-27 19:10:00,61.2,34.0,30.24,NNE,29,1.0,6.0,36,0.00,,,0.00,12.0,meteohub,2013-03-28 00:10:00,
2013-03-27 19:15:00,61.2,34.0,30.24,ENE,75,2.0,6.0,36,0.00,,,0.00,11.0,meteohub,2013-03-28 00:15:00,
2013-03-27 19:20:00,61.0,33.8,30.24,NE,50,0.0,6.0,36,0.00,,,0.00,7.0,meteohub,2013-03-28 00:20:00,
2013-03-27 19:25:00,60.4,34.0,30.24,East,88,0.0,6.0,37,0.00,,,0.00,5.0,meteohub,2013-03-28 00:25:00,
2013-03-27 19:30:00,60.3,34.5,30.23,NE,44,0.0,6.0,38,0.00,,,0.00,0.0,meteohub,2013-03-28 00:30:00,
2013-03-27 19:35:00,59.7,34.0,30.24,NE,34,0.0,5.0,38,0.00,,,0.00,0.0,meteohub,2013-03-28 00:35:00,
2013-03-27 19:40:00,59.0,34.2,30.23,NE,36,0.0,5.0,39,0.00,,,0.00,0.0,meteohub,2013-03-28 00:40:00,
2013-03-27 19:45:00,59.0,34.2,30.23,ENE,59,0.0,5.0,39,0.00,,,0.00,0.0,meteohub,2013-03-28 00:45:00,
2013-03-27 19:50:00,58.8,34.5,30.24,ENE,57,1.0,1.0,40,0.00,,,0.00,0.0,meteohub,2013-03-28 00:50:00,
2013-03-27 19:55:00,58.5,34.2,30.24,NNE,30,4.0,4.0,40,0.00,,,0.00,0.0,meteohub,2013-03-28 00:55:00,
2013-03-27 20:00:00,58.5,34.2,30.24,ENE,69,0.0,3.0,40,0.00,,,0.00,0.0,meteohub,2013-03-28 01:00:00,
2013-03-27 20:05:00,57.9,34.3,30.25,ENE,69,2.0,3.0,41,0.00,,,0.00,0.0,meteohub,2013-03-28 01:05:00,
2013-03-27 20:10:00,57.7,34.2,30.25,NE,44,0.0,4.0,41,0.00,,,0.00,0.0,meteohub,2013-03-28 01:10:00,
2013-03-27 20:15:00,57.6,34.7,30.24,NE,50,0.0,4.0,42,0.00,,,0.00,0.0,meteohub,2013-03-28 01:15:00,
2013-03-27 20:20:00,57.2,34.3,30.24,East,83,2.0,2.0,42,0.00,,,0.00,0.0,meteohub,2013-03-28 01:20:00,
2013-03-27 20:25:00,56.8,34.5,30.24,ENE,72,0.0,2.0,43,0.00,,,0.00,0.0,meteohub,2013-03-28 01:25:00,
2013-03-27 20:30:00,56.5,34.9,30.24,ENE,72,0.0,2.0,44,0.00,,,0.00,0.0,meteohub,2013-03-28 01:30:00,
2013-03-27 20:35:00,56.1,35.1,30.25,ENE,71,0.0,2.0,45,0.00,,,0.00,0.0,meteohub,2013-03-28 01:35:00,
2013-03-27 20:40:00,55.9,34.9,30.25,ENE,70,0.0,2.0,45,0.00,,,0.00,0.0,meteohub,2013-03-28 01:40:00,
2013-03-27 20:45:00,55.6,34.5,30.25,ENE,65,0.0,2.0,45,0.00,,,0.00,0.0,meteohub,2013-03-28 01:45:00,
2013-03-27 20:50:00,55.2,34.9,30.25,ENE,65,0.0,2.0,46,0.00,,,0.00,0.0,meteohub,2013-03-28 01:50:00,
2013-03-27 20:55:00,55.0,34.7,30.25,ENE,65,0.0,2.0,46,0.00,,,0.00,0.0,meteohub,2013-03-28 01:55:00,
2013-03-27 21:00:00,54.7,34.9,30.26,ENE,65,0.0,2.0,47,0.00,,,0.00,0.0,meteohub,2013-03-28 02:00:00,
2013-03-27 21:05:00,54.5,35.2,30.26,ENE,75,0.0,2.0,48,0.00,,,0.00,0.0,meteohub,2013-03-28 02:05:00,
2013-03-27 21:10:00,54.3,35.1,30.26,ENE,75,0.0,1.0,48,0.00,,,0.00,0.0,meteohub,2013-03-28 02:10:00,
2013-03-27 21:15:00,54.0,35.2,30.26,ENE,75,0.0,1.0,49,0.00,,,0.00,0.0,meteohub,2013-03-28 02:15:00,
2013-03-27 21:20:00,53.8,35.6,30.26,ENE,75,0.0,1.0,50,0.00,,,0.00,0.0,meteohub,2013-03-28 02:20:00,
2013-03-27 21:25:00,53.2,35.6,30.26,ENE,75,0.0,0.0,51,0.00,,,0.00,0.0,meteohub,2013-03-28 02:25:00,
2013-03-27 21:30:00,52.9,35.8,30.27,ENE,75,0.0,0.0,52,0.00,,,0.00,0.0,meteohub,2013-03-28 02:30:00,
2013-03-27 21:35:00,52.3,35.2,30.27,ENE,75,0.0,0.0,52,0.00,,,0.00,0.0,meteohub,2013-03-28 02:35:00,
2013-03-27 21:40:00,52.0,35.4,30.27,ENE,75,0.0,0.0,53,0.00,,,0.00,0.0,meteohub,2013-03-28 02:40:00,
2013-03-27 21:45:00,51.6,35.6,30.27,ENE,75,0.0,0.0,54,0.00,,,0.00,0.0,meteohub,2013-03-28 02:45:00,
2013-03-27 21:50:00,51.3,35.6,30.28,ENE,75,0.0,0.0,55,0.00,,,0.00,0.0,meteohub,2013-03-28 02:50:00,
2013-03-27 21:56:00,50.9,36.1,30.28,ENE,75,0.0,0.0,57,0.00,,,0.00,0.0,meteohub,2013-03-28 02:56:00,
2013-03-27 22:01:00,50.5,36.3,30.28,ENE,75,0.0,0.0,58,0.00,,,0.00,0.0,meteohub,2013-03-28 03:01:00,
2013-03-27 22:06:00,50.4,36.1,30.28,ENE,75,0.0,0.0,58,0.00,,,0.00,0.0,meteohub,2013-03-28 03:06:00,
2013-03-27 22:11:00,50.2,36.3,30.28,ENE,75,0.0,0.0,59,0.00,,,0.00,0.0,meteohub,2013-03-28 03:11:00,
2013-03-27 22:16:00,49.8,36.1,30.28,ENE,75,0.0,0.0,59,0.00,,,0.00,0.0,meteohub,2013-03-28 03:16:00,
2013-03-27 22:21:00,49.8,36.1,30.28,ENE,75,0.0,0.0,59,0.00,,,0.00,0.0,meteohub,2013-03-28 03:21:00,
2013-03-27 22:26:00,49.6,36.0,30.29,ENE,75,0.0,0.0,59,0.00,,,0.00,0.0,meteohub,2013-03-28 03:26:00,
2013-03-27 22:31:00,49.6,36.3,30.28,ENE,75,0.0,0.0,60,0.00,,,0.00,0.0,meteohub,2013-03-28 03:31:00,
2013-03-27 22:36:00,49.5,36.1,30.29,ENE,75,0.0,0.0,60,0.00,,,0.00,0.0,meteohub,2013-03-28 03:36:00,
2013-03-27 22:41:00,49.1,36.3,30.28,ENE,75,0.0,0.0,61,0.00,,,0.00,0.0,meteohub,2013-03-28 03:41:00,
2013-03-27 22:46:00,48.7,36.3,30.29,ENE,75,0.0,0.0,62,0.00,,,0.00,0.0,meteohub,2013-03-28 03:46:00,
2013-03-27 22:51:00,48.6,36.1,30.29,ENE,75,0.0,0.0,62,0.00,,,0.00,0.0,meteohub,2013-03-28 03:51:00,
2013-03-27 22:56:00,48.0,36.0,30.29,ENE,75,0.0,0.0,63,0.00,,,0.00,0.0,meteohub,2013-03-28 03:56:00,
2013-03-27 23:00:00,47.7,36.1,30.29,ENE,75,0.0,0.0,64,0.00,,,0.00,0.0,meteohub,2013-03-28 04:00:00,
2013-03-27 23:05:00,47.8,36.3,30.29,ENE,75,0.0,0.0,64,0.00,,,0.00,0.0,meteohub,2013-03-28 04:05:00,
2013-03-27 23:10:00,47.8,36.3,30.29,ENE,75,0.0,0.0,64,0.00,,,0.00,0.0,meteohub,2013-03-28 04:10:00,
2013-03-27 23:15:00,47.8,36.3,30.29,ENE,75,0.0,0.0,64,0.00,,,0.00,0.0,meteohub,2013-03-28 04:15:00,
2013-03-27 23:20:00,47.7,36.5,30.30,ENE,75,1.0,0.0,65,0.00,,,0.00,0.0,meteohub,2013-03-28 04:20:00,
2013-03-27 23:25:00,47.1,36.3,30.30,ENE,75,0.0,0.0,66,0.00,,,0.00,0.0,meteohub,2013-03-28 04:25:00,
2013-03-27 23:30:00,47.3,36.1,30.30,ENE,75,0.0,1.0,65,0.00,,,0.00,0.0,meteohub,2013-03-28 04:30:00,
2013-03-27 23:35:00,47.7,36.1,30.30,East,90,1.0,1.0,64,0.00,,,0.00,0.0,meteohub,2013-03-28 04:35:00,
2013-03-27 23:40:00,47.7,36.1,30.30,East,90,0.0,1.0,64,0.00,,,0.00,0.0,meteohub,2013-03-28 04:40:00,
2013-03-27 23:45:00,47.7,36.1,30.30,East,90,0.0,2.0,64,0.00,,,0.00,0.0,meteohub,2013-03-28 04:45:00,
2013-03-27 23:50:00,47.7,36.1,30.30,East,90,0.0,2.0,64,0.00,,,0.00,0.0,meteohub,2013-03-28 04:50:00,
2013-03-27 23:55:00,47.7,36.5,30.30,East,90,0.0,2.0,65,0.00,,,0.00,0.0,meteohub,2013-03-28 04:55:00,